createdAt,value
2018-03-03T00:00:36.723Z,-6.11
2018-03-03T00:01:36.669Z,-6.00
2018-03-03T00:02:36.611Z,-6.06
2018-03-03T00:03:36.582Z,-6.08
2018-03-03T00:04:36.499Z,-6.06
2018-03-03T00:05:36.443Z,-6.01
2018-03-03T00:06:36.390Z,-6.01
2018-03-03T00:07:36.329Z,-6.01
2018-03-03T00:08:36.301Z,-6.06
2018-03-03T00:09:36.222Z,-6.11
2018-03-03T00:10:36.168Z,-6.06
2018-03-03T00:11:36.110Z,-6.14
2018-03-03T00:12:36.051Z,-6.16
2018-03-03T00:13:36.019Z,-6.06
2018-03-03T00:14:35.941Z,-5.98
2018-03-03T00:15:35.883Z,-5.98
2018-03-03T00:16:35.831Z,-5.94
2018-03-03T00:17:35.776Z,-6.01
2018-03-03T00:18:35.717Z,-5.96
2018-03-03T00:19:35.684Z,-6.03
2018-03-03T00:20:35.606Z,-6.04
2018-03-03T00:21:35.548Z,-6.01
2018-03-03T00:22:35.499Z,-6.07
2018-03-03T00:23:35.466Z,-6.11
2018-03-03T00:24:35.402Z,-6.12
2018-03-03T00:25:35.324Z,-6.12
2018-03-03T00:26:35.265Z,-6.11
2018-03-03T00:27:35.213Z,-6.07
2018-03-03T00:28:35.155Z,-6.12
2018-03-03T00:29:35.140Z,-6.08
2018-03-03T00:30:35.086Z,-6.18
2018-03-03T00:31:34.986Z,-6.07
2018-03-03T00:32:34.933Z,-6.14
2018-03-03T00:33:34.877Z,-6.12
2018-03-03T00:34:34.844Z,-6.11
2018-03-03T00:35:42.456Z,-6.06
2018-03-03T00:36:34.733Z,-6.12
2018-03-03T00:37:34.654Z,-6.15
2018-03-03T00:38:34.610Z,-6.06
2018-03-03T00:39:34.564Z,-6.11
2018-03-03T00:40:34.481Z,-6.14
2018-03-03T00:41:34.430Z,-6.06
2018-03-03T00:42:34.373Z,-6.06
2018-03-03T00:43:34.314Z,-6.16
2018-03-03T00:44:34.289Z,-6.15
2018-03-03T00:45:34.202Z,-6.12
2018-03-03T00:46:34.150Z,-6.07
2018-03-03T00:47:34.094Z,-6.08
2018-03-03T00:48:34.035Z,-5.98
2018-03-03T00:49:34.002Z,-6.01
2018-03-03T00:50:33.925Z,-6.06
2018-03-03T00:51:33.874Z,-6.11
2018-03-03T00:52:33.816Z,-6.03
2018-03-03T00:53:33.757Z,-6.04
2018-03-03T00:54:33.722Z,-5.96
2018-03-03T00:55:33.669Z,-6.07
2018-03-03T00:56:33.619Z,-5.97
2018-03-03T00:57:33.572Z,-6.11
2018-03-03T00:58:33.471Z,-6.11
2018-03-03T00:59:33.446Z,-6.08
2018-03-03T01:00:33.361Z,-6.01
2018-03-03T01:01:33.309Z,-6.11
2018-03-03T01:02:33.248Z,-6.11
2018-03-03T01:03:33.192Z,-6.04
2018-03-03T01:04:33.168Z,-6.01
2018-03-03T01:05:33.081Z,-6.14
2018-03-03T01:06:33.028Z,-6.06
2018-03-03T01:07:33.010Z,-6.08
2018-03-03T01:08:32.917Z,-6.14
2018-03-03T01:09:32.880Z,-6.18
2018-03-03T01:10:32.806Z,-6.04
2018-03-03T01:11:32.769Z,-6.11
2018-03-03T01:12:32.754Z,-6.06
2018-03-03T01:13:32.664Z,-6.04
2018-03-03T01:14:32.605Z,-6.12
2018-03-03T01:15:32.525Z,-6.16
2018-03-03T01:16:32.464Z,-6.14
2018-03-03T01:17:32.412Z,-6.15
2018-03-03T01:18:32.352Z,-6.15
2018-03-03T01:19:32.341Z,-6.19
2018-03-03T01:20:32.250Z,-6.14
2018-03-03T01:21:32.187Z,-6.12
2018-03-03T01:22:32.129Z,-6.18
2018-03-03T01:23:32.073Z,-6.19
2018-03-03T01:24:32.041Z,-6.12
2018-03-03T01:25:31.967Z,-6.24
2018-03-03T01:26:31.905Z,-6.22
2018-03-03T01:27:31.906Z,-6.24
2018-03-03T01:28:31.794Z,-6.21
2018-03-03T01:29:31.761Z,-6.21
2018-03-03T01:30:31.681Z,-6.21
2018-03-03T01:31:31.622Z,-6.33
2018-03-03T01:32:31.570Z,-6.32
2018-03-03T01:33:31.511Z,-6.30
2018-03-03T01:34:31.481Z,-6.26
2018-03-03T01:35:31.403Z,-6.33
2018-03-03T01:36:31.411Z,-6.30
2018-03-03T01:37:31.290Z,-6.37
2018-03-03T01:38:31.282Z,-6.37
2018-03-03T01:39:31.201Z,-6.40
2018-03-03T01:40:31.118Z,-6.33
2018-03-03T01:41:31.063Z,-6.35
2018-03-03T01:42:31.007Z,-6.33
2018-03-03T01:43:30.952Z,-6.35
2018-03-03T01:44:30.919Z,-6.33
2018-03-03T01:45:30.839Z,-6.40
2018-03-03T01:46:30.786Z,-6.42
2018-03-03T01:47:30.744Z,-6.43
2018-03-03T01:48:30.671Z,-6.42
2018-03-03T01:49:30.703Z,-6.53
2018-03-03T01:50:30.560Z,-6.43
2018-03-03T01:51:30.523Z,-6.43
2018-03-03T01:52:30.442Z,-6.42
2018-03-03T01:53:30.390Z,-6.45
2018-03-03T01:54:30.401Z,-6.40
2018-03-03T01:55:30.284Z,-6.51
2018-03-03T01:56:30.221Z,-6.47
2018-03-03T01:57:30.169Z,-6.45
2018-03-03T01:58:30.109Z,-6.48
2018-03-03T01:59:30.081Z,-6.43
2018-03-03T02:00:29.996Z,-6.40
2018-03-03T02:01:29.941Z,-6.47
2018-03-03T02:02:29.890Z,-6.35
2018-03-03T02:03:29.840Z,-6.39
2018-03-03T02:04:29.817Z,-6.33
2018-03-03T02:05:29.714Z,-6.32
2018-03-03T02:06:29.658Z,-6.35
2018-03-03T02:07:29.609Z,-6.32
2018-03-03T02:08:29.547Z,-6.40
2018-03-03T02:09:29.510Z,-6.37
2018-03-03T02:10:29.439Z,-6.33
2018-03-03T02:11:29.379Z,-6.36
2018-03-03T02:12:29.381Z,-6.33
2018-03-03T02:13:29.263Z,-6.35
2018-03-03T02:14:29.230Z,-6.32
2018-03-03T02:15:29.154Z,-6.36
2018-03-03T02:16:29.102Z,-6.32
2018-03-03T02:17:29.042Z,-6.33
2018-03-03T02:18:28.986Z,-6.30
2018-03-03T02:19:28.965Z,-6.26
2018-03-03T02:20:28.876Z,-6.30
2018-03-03T02:21:28.824Z,-6.32
2018-03-03T02:22:28.761Z,-6.40
2018-03-03T02:23:28.705Z,-6.30
2018-03-03T02:24:28.671Z,-6.35
2018-03-03T02:25:28.593Z,-6.33
2018-03-03T02:26:28.541Z,-6.35
2018-03-03T02:27:28.483Z,-6.30
2018-03-03T02:28:28.472Z,-6.33
2018-03-03T02:29:28.398Z,-6.33
2018-03-03T02:30:28.314Z,-6.37
2018-03-03T02:31:28.257Z,-6.30
2018-03-03T02:32:28.210Z,-6.25
2018-03-03T02:33:28.146Z,-6.15
2018-03-03T02:34:28.114Z,-6.14
2018-03-03T02:35:28.035Z,-6.14
2018-03-03T02:36:27.977Z,-6.25
2018-03-03T02:37:27.920Z,-6.24
2018-03-03T02:38:27.865Z,-6.25
2018-03-03T02:39:27.831Z,-6.12
2018-03-03T02:40:27.762Z,-6.16
2018-03-03T02:41:27.696Z,-6.15
2018-03-03T02:42:27.654Z,-6.16
2018-03-03T02:43:27.578Z,-6.14
2018-03-03T02:44:27.549Z,-6.19
2018-03-03T02:45:27.485Z,-6.21
2018-03-03T02:46:27.421Z,-6.30
2018-03-03T02:47:27.414Z,-6.12
2018-03-03T02:48:27.309Z,-6.15
2018-03-03T02:49:27.286Z,-6.14
2018-03-03T02:50:27.191Z,-6.14
2018-03-03T02:51:27.134Z,-6.16
2018-03-03T02:52:27.077Z,-6.18
2018-03-03T02:53:27.024Z,-6.19
2018-03-03T02:54:26.964Z,-6.24
2018-03-03T02:55:27.169Z,-6.25
2018-03-03T02:56:26.859Z,-6.35
2018-03-03T02:57:26.799Z,-6.29
2018-03-03T02:58:26.751Z,-6.30
2018-03-03T02:59:26.684Z,-6.32
2018-03-03T03:00:26.652Z,-6.32
2018-03-03T03:01:26.582Z,-6.32
2018-03-03T03:02:26.516Z,-6.36
2018-03-03T03:03:26.460Z,-6.36
2018-03-03T03:04:26.405Z,-6.40
2018-03-03T03:05:26.376Z,-6.32
2018-03-03T03:06:26.328Z,-6.29
2018-03-03T03:07:26.248Z,-6.32
2018-03-03T03:08:26.187Z,-6.36
2018-03-03T03:09:26.121Z,-6.37
2018-03-03T03:10:26.103Z,-6.37
2018-03-03T03:11:26.009Z,-6.32
2018-03-03T03:12:25.956Z,-6.32
2018-03-03T03:13:25.896Z,-6.29
2018-03-03T03:14:25.844Z,-6.26
2018-03-03T03:15:25.807Z,-6.29
2018-03-03T03:16:25.727Z,-6.30
2018-03-03T03:17:25.673Z,-6.26
2018-03-03T03:18:25.632Z,-6.33
2018-03-03T03:19:25.572Z,-6.32
2018-03-03T03:20:25.531Z,-6.35
2018-03-03T03:21:25.449Z,-6.36
2018-03-03T03:22:25.393Z,-6.33
2018-03-03T03:23:25.335Z,-6.35
2018-03-03T03:24:25.279Z,-6.35
2018-03-03T03:25:25.248Z,-6.33
2018-03-03T03:26:25.167Z,-6.48
2018-03-03T03:27:25.120Z,-6.36
2018-03-03T03:28:25.062Z,-6.40
2018-03-03T03:29:24.997Z,-6.36
2018-03-03T03:30:24.972Z,-6.45
2018-03-03T03:31:24.885Z,-6.39
2018-03-03T03:32:24.833Z,-6.37
2018-03-03T03:33:24.783Z,-6.45
2018-03-03T03:34:24.718Z,-6.43
2018-03-03T03:35:24.683Z,-6.39
2018-03-03T03:36:24.605Z,-6.43
2018-03-03T03:37:24.570Z,-6.43
2018-03-03T03:38:24.490Z,-6.43
2018-03-03T03:39:24.437Z,-6.45
2018-03-03T03:40:24.409Z,-6.42
2018-03-03T03:41:24.325Z,-6.43
2018-03-03T03:42:24.265Z,-6.39
2018-03-03T03:43:24.222Z,-6.45
2018-03-03T03:44:24.155Z,-6.43
2018-03-03T03:45:24.120Z,-6.37
2018-03-03T03:46:24.059Z,-6.32
2018-03-03T03:47:23.987Z,-6.35
2018-03-03T03:48:23.931Z,-6.35
2018-03-03T03:49:23.884Z,-6.32
2018-03-03T03:50:23.843Z,-6.25
2018-03-03T03:51:23.806Z,-6.25
2018-03-03T03:52:23.704Z,-6.32
2018-03-03T03:53:23.650Z,-6.26
2018-03-03T03:54:23.596Z,-6.22
2018-03-03T03:55:23.561Z,-6.15
2018-03-03T03:56:23.482Z,-6.25
2018-03-03T03:57:23.425Z,-6.16
2018-03-03T03:58:23.372Z,-6.19
2018-03-03T03:59:23.314Z,-6.14
2018-03-03T04:00:23.279Z,-6.18
2018-03-03T04:01:23.200Z,-6.15
2018-03-03T04:02:23.143Z,-6.19
2018-03-03T04:03:23.087Z,-6.15
2018-03-03T04:04:23.063Z,-6.29
2018-03-03T04:05:22.998Z,-6.26
2018-03-03T04:06:22.923Z,-6.32
2018-03-03T04:07:22.868Z,-6.29
2018-03-03T04:08:22.809Z,-6.37
2018-03-03T04:09:22.754Z,-6.35
2018-03-03T04:10:22.719Z,-6.35
2018-03-03T04:11:22.641Z,-6.32
2018-03-03T04:12:22.582Z,-6.35
2018-03-03T04:13:22.526Z,-6.43
2018-03-03T04:14:22.472Z,-6.43
2018-03-03T04:15:22.451Z,-6.45
2018-03-03T04:16:22.360Z,-6.50
2018-03-03T04:17:22.299Z,-6.45
2018-03-03T04:18:22.249Z,-6.37
2018-03-03T04:19:22.189Z,-6.37
2018-03-03T04:20:22.154Z,-6.55
2018-03-03T04:21:22.074Z,-6.54
2018-03-03T04:22:22.020Z,-6.45
2018-03-03T04:23:21.963Z,-6.48
2018-03-03T04:24:21.905Z,-6.50
2018-03-03T04:25:21.884Z,-6.43
2018-03-03T04:26:21.792Z,-6.47
2018-03-03T04:27:21.740Z,-6.53
2018-03-03T04:28:21.683Z,-6.53
2018-03-03T04:29:21.623Z,-6.48
2018-03-03T04:30:21.595Z,-6.59
2018-03-03T04:31:21.510Z,-6.50
2018-03-03T04:32:21.460Z,-6.50
2018-03-03T04:33:21.400Z,-6.45
2018-03-03T04:34:21.344Z,-6.42
2018-03-03T04:35:21.312Z,-6.35
2018-03-03T04:36:21.231Z,-6.30
2018-03-03T04:37:21.178Z,-6.30
2018-03-03T04:38:21.119Z,-6.29
2018-03-03T04:39:21.066Z,-6.33
2018-03-03T04:40:21.026Z,-6.25
2018-03-03T04:41:20.952Z,-6.25
2018-03-03T04:42:20.894Z,-6.18
2018-03-03T04:43:20.838Z,-6.19
2018-03-03T04:44:20.779Z,-6.25
2018-03-03T04:45:20.746Z,-6.18
2018-03-03T04:46:20.668Z,-6.12
2018-03-03T04:47:20.612Z,-6.12
2018-03-03T04:48:20.552Z,-6.16
2018-03-03T04:49:20.498Z,-6.07
2018-03-03T04:50:20.464Z,-6.19
2018-03-03T04:51:20.386Z,-6.16
2018-03-03T04:52:20.333Z,-6.14
2018-03-03T04:53:20.269Z,-6.15
2018-03-03T04:54:20.218Z,-6.11
2018-03-03T04:55:20.185Z,-6.15
2018-03-03T04:56:20.108Z,-6.18
2018-03-03T04:57:20.048Z,-6.08
2018-03-03T04:58:19.993Z,-6.08
2018-03-03T04:59:19.942Z,-6.11
2018-03-03T05:00:19.919Z,-6.07
2018-03-03T05:01:19.823Z,-6.14
2018-03-03T05:02:19.766Z,-6.16
2018-03-03T05:03:19.718Z,-6.08
2018-03-03T05:04:19.658Z,-6.08
2018-03-03T05:05:19.598Z,-6.18
2018-03-03T05:06:19.563Z,-6.29
2018-03-03T05:07:19.488Z,-6.15
2018-03-03T05:08:19.435Z,-6.26
2018-03-03T05:09:19.374Z,-6.24
2018-03-03T05:10:19.317Z,-6.39
2018-03-03T05:11:19.281Z,-6.32
2018-03-03T05:12:19.209Z,-6.40
2018-03-03T05:13:19.149Z,-6.39
2018-03-03T05:14:19.095Z,-6.43
2018-03-03T05:15:19.035Z,-6.30
2018-03-03T05:16:19.020Z,-6.48
2018-03-03T05:17:18.924Z,-6.47
2018-03-03T05:18:18.871Z,-6.43
2018-03-03T05:19:18.810Z,-6.45
2018-03-03T05:20:18.756Z,-6.40
2018-03-03T05:21:18.721Z,-6.43
2018-03-03T05:22:18.649Z,-6.45
2018-03-03T05:23:18.588Z,-6.55
2018-03-03T05:24:18.530Z,-6.43
2018-03-03T05:25:18.478Z,-6.42
2018-03-03T05:26:18.442Z,-6.43
2018-03-03T05:27:18.367Z,-6.37
2018-03-03T05:28:18.307Z,-6.42
2018-03-03T05:29:18.248Z,-6.37
2018-03-03T05:30:18.196Z,-6.45
2018-03-03T05:31:18.158Z,-6.37
2018-03-03T05:32:18.082Z,-6.47
2018-03-03T05:33:18.024Z,-6.43
2018-03-03T05:34:17.968Z,-6.43
2018-03-03T05:35:17.912Z,-6.47
2018-03-03T05:36:17.998Z,-6.35
2018-03-03T05:37:17.797Z,-6.36
2018-03-03T05:38:17.771Z,-6.32
2018-03-03T05:39:17.686Z,-6.26
2018-03-03T05:40:17.642Z,-6.33
2018-03-03T05:41:17.598Z,-6.26
2018-03-03T05:42:17.519Z,-6.26
2018-03-03T05:43:17.460Z,-6.26
2018-03-03T05:44:17.431Z,-6.30
2018-03-03T05:45:17.348Z,-6.29
2018-03-03T05:46:17.316Z,-6.37
2018-03-03T05:47:17.236Z,-6.29
2018-03-03T05:48:17.219Z,-6.32
2018-03-03T05:49:17.126Z,-6.32
2018-03-03T05:50:17.073Z,-6.32
2018-03-03T05:51:17.010Z,-6.26
2018-03-03T05:52:16.975Z,-6.29
2018-03-03T05:53:16.898Z,-6.33
2018-03-03T05:54:16.867Z,-6.25
2018-03-03T05:55:16.787Z,-6.35
2018-03-03T05:56:16.729Z,-6.26
2018-03-03T05:57:16.696Z,-6.37
2018-03-03T05:58:16.621Z,-6.33
2018-03-03T05:59:16.561Z,-6.36
2018-03-03T06:00:16.547Z,-6.39
2018-03-03T06:01:16.447Z,-6.36
2018-03-03T06:02:16.419Z,-6.35
2018-03-03T06:03:16.337Z,-6.29
2018-03-03T06:04:16.275Z,-6.50
2018-03-03T06:05:16.224Z,-6.35
2018-03-03T06:06:16.172Z,-6.37
2018-03-03T06:07:16.148Z,-6.51
2018-03-03T06:08:16.060Z,-6.47
2018-03-03T06:09:16.014Z,-6.43
2018-03-03T06:10:15.944Z,-6.48
2018-03-03T06:11:15.885Z,-6.39
2018-03-03T06:12:15.830Z,-6.43
2018-03-03T06:13:15.796Z,-6.50
2018-03-03T06:14:15.754Z,-6.29
2018-03-03T06:15:15.715Z,-6.29
2018-03-03T06:16:15.604Z,-6.32
2018-03-03T06:17:15.550Z,-6.32
2018-03-03T06:18:15.515Z,-6.43
2018-03-03T06:19:15.435Z,-6.42
2018-03-03T06:20:15.391Z,-6.47
2018-03-03T06:21:15.324Z,-6.48
2018-03-03T06:22:15.271Z,-6.51
2018-03-03T06:23:15.234Z,-6.42
2018-03-03T06:24:15.155Z,-6.45
2018-03-03T06:25:15.096Z,-6.53
2018-03-03T06:26:15.040Z,-6.55
2018-03-03T06:27:14.987Z,-6.54
2018-03-03T06:28:14.958Z,-6.55
2018-03-03T06:29:14.869Z,-6.61
2018-03-03T06:30:14.816Z,-6.53
2018-03-03T06:31:14.767Z,-6.65
2018-03-03T06:32:14.703Z,-6.61
2018-03-03T06:33:14.668Z,-6.75
2018-03-03T06:34:14.590Z,-6.72
2018-03-03T06:35:14.562Z,-6.69
2018-03-03T06:36:14.477Z,-6.72
2018-03-03T06:37:14.419Z,-6.67
2018-03-03T06:38:14.389Z,-6.72
2018-03-03T06:39:14.310Z,-6.69
2018-03-03T06:40:14.252Z,-6.72
2018-03-03T06:41:14.200Z,-6.72
2018-03-03T06:42:14.139Z,-6.62
2018-03-03T06:43:14.118Z,-6.59
2018-03-03T06:44:14.025Z,-6.62
2018-03-03T06:45:13.977Z,-6.62
2018-03-03T06:46:13.977Z,-6.58
2018-03-03T06:47:13.860Z,-6.50
2018-03-03T06:48:13.827Z,-6.51
2018-03-03T06:49:13.745Z,-6.51
2018-03-03T06:50:13.690Z,-6.50
2018-03-03T06:51:13.632Z,-6.51
2018-03-03T06:52:13.575Z,-6.50
2018-03-03T06:53:13.557Z,-6.40
2018-03-03T06:54:13.464Z,-6.47
2018-03-03T06:55:13.408Z,-6.40
2018-03-03T06:56:13.349Z,-6.32
2018-03-03T06:57:13.292Z,-6.30
2018-03-03T06:58:13.263Z,-6.33
2018-03-03T06:59:13.180Z,-6.36
2018-03-03T07:00:13.132Z,-6.36
2018-03-03T07:01:13.068Z,-6.18
2018-03-03T07:02:13.017Z,-6.21
2018-03-03T07:03:12.982Z,-6.21
2018-03-03T07:04:12.904Z,-6.08
2018-03-03T07:05:12.847Z,-6.14
2018-03-03T07:06:12.786Z,-6.11
2018-03-03T07:07:12.728Z,-6.12
2018-03-03T07:08:12.699Z,-6.08
2018-03-03T07:09:12.625Z,-6.12
2018-03-03T07:10:12.566Z,-6.07
2018-03-03T07:11:12.507Z,-5.97
2018-03-03T07:12:12.452Z,-5.98
2018-03-03T07:13:12.416Z,-5.98
2018-03-03T07:14:12.339Z,-5.97
2018-03-03T07:15:12.284Z,-5.86
2018-03-03T07:16:12.226Z,-5.79
2018-03-03T07:17:12.176Z,-5.85
2018-03-03T07:18:12.141Z,-5.80
2018-03-03T07:19:12.057Z,-5.78
2018-03-03T07:20:12.002Z,-5.78
2018-03-03T07:21:11.947Z,-5.69
2018-03-03T07:22:11.888Z,-5.79
2018-03-03T07:23:11.858Z,-5.78
2018-03-03T07:24:11.777Z,-5.78
2018-03-03T07:25:11.747Z,-5.76
2018-03-03T07:26:11.667Z,-5.62
2018-03-03T07:27:11.614Z,-5.62
2018-03-03T07:28:11.579Z,-5.59
2018-03-03T07:29:11.502Z,-5.71
2018-03-03T07:30:11.444Z,-5.61
2018-03-03T07:31:11.386Z,-5.54
2018-03-03T07:32:11.330Z,-5.51
2018-03-03T07:33:11.300Z,-5.46
2018-03-03T07:34:11.217Z,-5.46
2018-03-03T07:35:11.166Z,-5.37
2018-03-03T07:36:11.109Z,-5.32
2018-03-03T07:37:11.056Z,-5.28
2018-03-03T07:38:11.122Z,-5.32
2018-03-03T07:39:10.943Z,-5.29
2018-03-03T07:40:10.886Z,-5.29
2018-03-03T07:41:10.833Z,-5.28
2018-03-03T07:42:10.777Z,-5.13
2018-03-03T07:43:10.742Z,-5.09
2018-03-03T07:44:10.700Z,-5.04
2018-03-03T07:45:10.608Z,-5.03
2018-03-03T07:46:10.556Z,-5.06
2018-03-03T07:47:10.497Z,-5.04
2018-03-03T07:48:10.471Z,-4.90
2018-03-03T07:49:10.383Z,-4.88
2018-03-03T07:50:10.330Z,-4.83
2018-03-03T07:51:10.276Z,-4.74
2018-03-03T07:52:10.223Z,-4.79
2018-03-03T07:53:10.186Z,-4.74
2018-03-03T07:54:10.108Z,-4.81
2018-03-03T07:55:10.052Z,-4.74
2018-03-03T07:56:09.997Z,-4.78
2018-03-03T07:57:09.944Z,-4.71
2018-03-03T07:58:09.939Z,-4.67
2018-03-03T07:59:09.834Z,-4.70
2018-03-03T08:00:09.775Z,-4.72
2018-03-03T08:01:09.724Z,-4.62
2018-03-03T08:02:09.668Z,-4.67
2018-03-03T08:03:09.638Z,-4.62
2018-03-03T08:04:09.562Z,-4.52
2018-03-03T08:05:09.504Z,-4.52
2018-03-03T08:06:09.450Z,-4.46
2018-03-03T08:07:09.389Z,-4.49
2018-03-03T08:08:09.357Z,-4.46
2018-03-03T08:09:09.280Z,-4.38
2018-03-03T08:10:09.229Z,-4.32
2018-03-03T08:11:09.168Z,-4.28
2018-03-03T08:12:09.116Z,-4.29
2018-03-03T08:13:09.084Z,-4.26
2018-03-03T08:14:09.006Z,-4.29
2018-03-03T08:15:08.950Z,-4.28
2018-03-03T08:16:08.897Z,-4.25
2018-03-03T08:17:08.842Z,-4.23
2018-03-03T08:18:16.499Z,-4.29
2018-03-03T08:19:08.730Z,-4.17
2018-03-03T08:20:08.675Z,-4.23
2018-03-03T08:21:08.621Z,-4.07
2018-03-03T08:22:08.566Z,-4.10
2018-03-03T08:23:08.512Z,-4.08
2018-03-03T08:24:08.475Z,-4.04
2018-03-03T08:25:08.404Z,-3.97
2018-03-03T08:26:08.350Z,-3.90
2018-03-03T08:27:08.313Z,-3.93
2018-03-03T08:28:08.235Z,-3.97
2018-03-03T08:29:08.205Z,-3.96
2018-03-03T08:30:08.129Z,-3.97
2018-03-03T08:31:08.071Z,-3.95
2018-03-03T08:32:08.019Z,-3.85
2018-03-03T08:33:07.968Z,-3.86
2018-03-03T08:34:07.937Z,-3.85
2018-03-03T08:35:07.862Z,-3.79
2018-03-03T08:36:07.798Z,-3.68
2018-03-03T08:37:07.743Z,-3.74
2018-03-03T08:38:07.690Z,-3.70
2018-03-03T08:39:07.657Z,-3.71
2018-03-03T08:40:07.593Z,-3.65
2018-03-03T08:41:07.525Z,-3.65
2018-03-03T08:42:07.475Z,-3.56
2018-03-03T08:43:07.414Z,-3.46
2018-03-03T08:44:07.394Z,-3.49
2018-03-03T08:45:07.310Z,-3.37
2018-03-03T08:46:07.252Z,-3.39
2018-03-03T08:47:07.198Z,-3.34
2018-03-03T08:48:07.187Z,-3.20
2018-03-03T08:49:07.139Z,-3.29
2018-03-03T08:50:07.033Z,-3.29
2018-03-03T08:51:06.981Z,-3.24
2018-03-03T08:52:06.922Z,-3.24
2018-03-03T08:53:06.875Z,-3.23
2018-03-03T08:54:06.841Z,-3.13
2018-03-03T08:55:06.767Z,-3.13
2018-03-03T08:56:06.722Z,-3.14
2018-03-03T08:57:06.655Z,-2.98
2018-03-03T08:58:06.604Z,-2.96
2018-03-03T08:59:06.571Z,-2.99
2018-03-03T09:00:06.493Z,-3.00
2018-03-03T09:01:06.454Z,-3.02
2018-03-03T09:02:06.389Z,-3.00
2018-03-03T09:03:06.334Z,-2.88
2018-03-03T09:04:06.302Z,-3.00
2018-03-03T09:05:06.224Z,-2.98
2018-03-03T09:06:06.170Z,-2.98
2018-03-03T09:07:06.125Z,-2.99
2018-03-03T09:08:06.201Z,-2.75
2018-03-03T09:09:06.028Z,-2.80
2018-03-03T09:10:05.963Z,-2.87
2018-03-03T09:11:05.897Z,-2.81
2018-03-03T09:12:05.845Z,-2.78
2018-03-03T09:13:05.910Z,-2.82
2018-03-03T09:14:05.757Z,-2.82
2018-03-03T09:15:05.685Z,-2.66
2018-03-03T09:16:05.633Z,-2.59
2018-03-03T09:17:05.572Z,-2.54
2018-03-03T09:18:05.524Z,-2.46
2018-03-03T09:19:05.504Z,-2.57
2018-03-03T09:20:05.409Z,-2.49
2018-03-03T09:21:05.358Z,-2.60
2018-03-03T09:22:05.305Z,-2.57
2018-03-03T09:23:05.251Z,-2.51
2018-03-03T09:24:05.222Z,-2.56
2018-03-03T09:25:05.150Z,-2.51
2018-03-03T09:26:05.091Z,-2.48
2018-03-03T09:27:05.066Z,-2.39
2018-03-03T09:28:04.982Z,-2.48
2018-03-03T09:29:04.956Z,-2.45
2018-03-03T09:30:04.875Z,-2.46
2018-03-03T09:31:04.824Z,-2.53
2018-03-03T09:32:04.765Z,-2.51
2018-03-03T09:33:04.714Z,-2.56
2018-03-03T09:34:04.683Z,-2.51
2018-03-03T09:35:04.606Z,-2.43
2018-03-03T09:36:04.593Z,-2.42
2018-03-03T09:37:04.510Z,-2.38
2018-03-03T09:38:04.450Z,-2.35
2018-03-03T09:39:04.413Z,-2.33
2018-03-03T09:40:04.342Z,-2.23
2018-03-03T09:41:04.288Z,-2.16
2018-03-03T09:42:04.280Z,-2.12
2018-03-03T09:43:04.182Z,-2.11
2018-03-03T09:44:04.165Z,-2.11
2018-03-03T09:45:04.081Z,-2.06
2018-03-03T09:46:04.017Z,-2.05
2018-03-03T09:47:03.982Z,-1.98
2018-03-03T09:48:03.924Z,-1.94
2018-03-03T09:49:03.876Z,-1.94
2018-03-03T09:50:03.799Z,-1.87
2018-03-03T09:51:03.744Z,-1.98
2018-03-03T09:52:03.700Z,-1.81
2018-03-03T09:53:03.662Z,-1.78
2018-03-03T09:54:03.614Z,-1.72
2018-03-03T09:55:03.537Z,-1.70
2018-03-03T09:56:03.478Z,-1.72
2018-03-03T09:57:03.433Z,-1.60
2018-03-03T09:58:03.378Z,-1.60
2018-03-03T09:59:03.346Z,-1.60
2018-03-03T10:00:03.269Z,-1.65
2018-03-03T10:01:03.223Z,-1.55
2018-03-03T10:02:06.290Z,-1.57
2018-03-03T10:03:03.108Z,-1.47
2018-03-03T10:04:03.081Z,-1.54
2018-03-03T10:05:02.998Z,-1.48
2018-03-03T10:06:02.948Z,-1.36
2018-03-03T10:07:02.901Z,-1.37
2018-03-03T10:08:02.841Z,-1.36
2018-03-03T10:09:02.806Z,-1.37
2018-03-03T10:10:02.733Z,-1.27
2018-03-03T10:11:02.680Z,-1.36
2018-03-03T10:12:02.632Z,-1.18
2018-03-03T10:13:02.614Z,-1.13
2018-03-03T10:14:02.708Z,-1.15
2018-03-03T10:15:02.525Z,-1.12
2018-03-03T10:16:02.422Z,-1.12
2018-03-03T10:17:02.499Z,-1.21
2018-03-03T10:18:02.314Z,-1.15
2018-03-03T10:19:02.284Z,-1.13
2018-03-03T10:20:02.208Z,-1.16
2018-03-03T10:21:02.160Z,-1.15
2018-03-03T10:22:02.102Z,-1.08
2018-03-03T10:23:02.113Z,-1.11
2018-03-03T10:24:02.018Z,-0.95
2018-03-03T10:25:01.948Z,-0.97
2018-03-03T10:26:01.888Z,-0.84
2018-03-03T10:27:01.836Z,-0.83
2018-03-03T10:28:01.784Z,-0.86
2018-03-03T10:29:01.764Z,-0.87
2018-03-03T10:30:01.725Z,-0.83
2018-03-03T10:31:01.627Z,-0.86
2018-03-03T10:32:01.576Z,-0.84
2018-03-03T10:33:01.539Z,-0.76
2018-03-03T10:34:01.494Z,-0.75
2018-03-03T10:35:01.416Z,-0.74
2018-03-03T10:36:01.358Z,-0.71
2018-03-03T10:37:01.311Z,-0.72
2018-03-03T10:38:01.275Z,-0.74
2018-03-03T10:39:01.276Z,-0.74
2018-03-03T10:40:01.153Z,-0.74
2018-03-03T10:41:01.096Z,-0.72
2018-03-03T10:42:01.042Z,-0.66
2018-03-03T10:43:00.986Z,-0.65
2018-03-03T10:44:00.978Z,-0.65
2018-03-03T10:45:00.907Z,-0.63
2018-03-03T10:46:00.837Z,-0.66
2018-03-03T10:47:00.775Z,-0.63
2018-03-03T10:48:00.726Z,-0.66
2018-03-03T10:49:00.677Z,-0.68
2018-03-03T10:50:00.648Z,-0.79
2018-03-03T10:51:00.566Z,-0.76
2018-03-03T10:52:00.520Z,-0.79
2018-03-03T10:53:00.464Z,-0.83
2018-03-03T10:54:00.431Z,-0.78
2018-03-03T10:55:00.390Z,-0.86
2018-03-03T10:56:00.308Z,-0.76
2018-03-03T10:57:00.255Z,-0.76
2018-03-03T10:58:00.204Z,-0.75
2018-03-03T10:59:00.155Z,-0.69
2018-03-03T11:00:00.117Z,-0.75
2018-03-03T11:01:00.047Z,-0.65
2018-03-03T11:01:59.993Z,-0.63
2018-03-03T11:02:59.937Z,-0.71
2018-03-03T11:03:59.911Z,-0.72
2018-03-03T11:04:59.897Z,-0.66
2018-03-03T11:05:59.795Z,-0.66
2018-03-03T11:06:59.726Z,-0.63
2018-03-03T11:07:59.683Z,-0.65
2018-03-03T11:08:59.622Z,-0.53
2018-03-03T11:09:59.591Z,-0.53
2018-03-03T11:10:59.515Z,-0.47
2018-03-03T11:11:59.461Z,-0.40
2018-03-03T11:12:59.412Z,-0.47
2018-03-03T11:13:59.358Z,-0.32
2018-03-03T11:14:59.325Z,-0.32
2018-03-03T11:15:59.252Z,-0.28
2018-03-03T11:16:59.198Z,-0.29
2018-03-03T11:17:59.149Z,-0.18
2018-03-03T11:18:59.098Z,-0.09
2018-03-03T11:19:59.064Z,-0.11
2018-03-03T11:20:58.990Z,-0.09
2018-03-03T11:21:58.938Z,-0.03
2018-03-03T11:24:30.480Z,0.15
2018-03-03T11:25:30.404Z,0.15
2018-03-03T11:26:30.349Z,0.06
2018-03-03T11:27:30.319Z,0.10
2018-03-03T11:28:30.244Z,0.09
2018-03-03T11:29:30.217Z,0.10
2018-03-03T11:30:30.139Z,0.21
2018-03-03T11:31:30.087Z,0.06
2018-03-03T11:32:30.035Z,0.18
2018-03-03T11:33:29.981Z,0.14
2018-03-03T11:34:29.953Z,0.19
2018-03-03T11:35:29.875Z,0.18
2018-03-03T11:36:29.826Z,0.24
2018-03-03T11:37:29.776Z,0.19
2018-03-03T11:38:29.717Z,0.19
2018-03-03T11:39:29.717Z,0.18
2018-03-03T11:40:33.136Z,0.25
2018-03-03T11:41:29.568Z,0.27
2018-03-03T11:42:29.517Z,0.25
2018-03-03T11:43:29.542Z,0.24
2018-03-03T11:44:29.436Z,0.12
2018-03-03T11:45:29.360Z,0.19
2018-03-03T11:46:29.322Z,0.19
2018-03-03T11:47:29.287Z,0.27
2018-03-03T11:48:29.203Z,0.32
2018-03-03T11:49:29.173Z,0.43
2018-03-03T11:50:29.306Z,0.55
2018-03-03T11:51:29.045Z,0.58
2018-03-03T11:52:28.994Z,0.64
2018-03-03T11:53:28.944Z,0.73
2018-03-03T11:54:28.916Z,0.74
2018-03-03T11:55:28.836Z,0.77
2018-03-03T11:56:28.788Z,0.73
2018-03-03T11:57:28.740Z,0.80
2018-03-03T11:58:28.683Z,0.82
2018-03-03T11:59:28.669Z,0.90
2018-03-03T12:00:28.584Z,0.83
2018-03-03T12:01:28.535Z,0.80
2018-03-03T12:02:28.513Z,0.76
2018-03-03T12:03:28.455Z,0.74
2018-03-03T12:04:28.374Z,0.76
2018-03-03T12:05:28.353Z,0.73
2018-03-03T12:06:28.280Z,0.82
2018-03-03T12:07:28.221Z,0.56
2018-03-03T12:08:28.171Z,0.77
2018-03-03T12:09:28.131Z,0.70
2018-03-03T12:10:28.093Z,0.68
2018-03-03T12:11:28.028Z,0.79
2018-03-03T12:12:27.966Z,0.76
2018-03-03T12:13:27.921Z,0.72
2018-03-03T12:14:27.862Z,0.64
2018-03-03T12:15:27.835Z,0.50
2018-03-03T12:16:27.762Z,0.62
2018-03-03T12:17:27.711Z,0.61
2018-03-03T12:18:27.656Z,0.59
2018-03-03T12:19:27.608Z,0.53
2018-03-03T12:20:27.577Z,0.55
2018-03-03T12:21:27.505Z,0.47
2018-03-03T12:22:27.452Z,0.45
2018-03-03T12:23:27.405Z,0.35
2018-03-03T12:24:27.348Z,0.28
2018-03-03T12:25:27.322Z,0.36
2018-03-03T12:26:27.246Z,0.37
2018-03-03T12:27:27.200Z,0.32
2018-03-03T12:28:27.144Z,0.32
2018-03-03T12:29:27.091Z,0.29
2018-03-03T12:30:27.064Z,0.22
2018-03-03T12:31:26.988Z,0.28
2018-03-03T12:32:26.936Z,0.32
2018-03-03T12:33:26.887Z,0.43
2018-03-03T12:34:26.841Z,0.47
2018-03-03T12:35:26.806Z,0.42
2018-03-03T12:36:26.731Z,0.47
2018-03-03T12:37:26.682Z,0.55
2018-03-03T12:38:26.630Z,0.62
2018-03-03T12:39:26.573Z,0.58
2018-03-03T12:40:26.550Z,0.59
2018-03-03T12:41:26.482Z,0.59
2018-03-03T12:42:26.437Z,0.59
2018-03-03T12:43:26.368Z,0.59
2018-03-03T12:44:26.323Z,0.64
2018-03-03T12:45:26.295Z,0.62
2018-03-03T12:46:26.214Z,0.79
2018-03-03T12:47:26.164Z,0.77
2018-03-03T12:48:26.116Z,0.68
2018-03-03T12:49:26.067Z,0.62
2018-03-03T12:50:26.049Z,0.65
2018-03-03T12:51:25.961Z,0.59
2018-03-03T12:52:25.911Z,0.55
2018-03-03T12:53:25.856Z,0.58
2018-03-03T12:54:25.804Z,0.51
2018-03-03T12:55:25.778Z,0.61
2018-03-03T12:56:25.707Z,0.59